sensor_id;sensor_type;location;lat;lon;timestamp;P1;durP1;ratioP1;P2;durP2;ratioP2
21233;SDS011;10774;42.178;26.578;2023-02-21T00:02:36;14.57;;;8.45;;
21233;SDS011;10774;42.178;26.578;2023-02-21T00:05:20;13.70;;;8.23;;
21233;SDS011;10774;42.178;26.578;2023-02-21T00:08:04;13.52;;;8.68;;
21233;SDS011;10774;42.178;26.578;2023-02-21T00:10:48;14.48;;;8.85;;
21233;SDS011;10774;42.178;26.578;2023-02-21T00:13:34;13.48;;;8.35;;
21233;SDS011;10774;42.178;26.578;2023-02-21T00:16:19;14.05;;;9.38;;
21233;SDS011;10774;42.178;26.578;2023-02-21T00:19:03;12.80;;;8.70;;
21233;SDS011;10774;42.178;26.578;2023-02-21T00:21:47;14.23;;;8.77;;
21233;SDS011;10774;42.178;26.578;2023-02-21T00:24:31;11.25;;;6.82;;
21233;SDS011;10774;42.178;26.578;2023-02-21T00:27:15;10.15;;;7.53;;
21233;SDS011;10774;42.178;26.578;2023-02-21T00:29:59;11.20;;;6.75;;
21233;SDS011;10774;42.178;26.578;2023-02-21T00:32:43;11.13;;;7.32;;
21233;SDS011;10774;42.178;26.578;2023-02-21T00:35:26;9.27;;;7.13;;
21233;SDS011;10774;42.178;26.578;2023-02-21T00:38:10;14.48;;;8.43;;
21233;SDS011;10774;42.178;26.578;2023-02-21T00:40:55;10.05;;;7.32;;
21233;SDS011;10774;42.178;26.578;2023-02-21T00:43:39;12.10;;;7.47;;
21233;SDS011;10774;42.178;26.578;2023-02-21T00:46:23;14.00;;;7.65;;
21233;SDS011;10774;42.178;26.578;2023-02-21T00:49:06;9.50;;;6.93;;
21233;SDS011;10774;42.178;26.578;2023-02-21T00:51:51;12.30;;;7.50;;
21233;SDS011;10774;42.178;26.578;2023-02-21T00:54:36;10.37;;;5.70;;
21233;SDS011;10774;42.178;26.578;2023-02-21T00:57:20;9.77;;;6.68;;
21233;SDS011;10774;42.178;26.578;2023-02-21T01:00:05;10.45;;;6.78;;
21233;SDS011;10774;42.178;26.578;2023-02-21T01:02:51;10.63;;;5.85;;
21233;SDS011;10774;42.178;26.578;2023-02-21T01:05:35;12.90;;;6.45;;
21233;SDS011;10774;42.178;26.578;2023-02-21T01:08:18;12.80;;;6.15;;
21233;SDS011;10774;42.178;26.578;2023-02-21T01:11:03;12.15;;;6.15;;
21233;SDS011;10774;42.178;26.578;2023-02-21T01:13:47;11.68;;;6.43;;
21233;SDS011;10774;42.178;26.578;2023-02-21T01:16:31;8.35;;;5.47;;
21233;SDS011;10774;42.178;26.578;2023-02-21T01:19:16;8.25;;;5.43;;
21233;SDS011;10774;42.178;26.578;2023-02-21T01:22:00;10.48;;;5.95;;
21233;SDS011;10774;42.178;26.578;2023-02-21T01:24:47;11.88;;;6.15;;
21233;SDS011;10774;42.178;26.578;2023-02-21T01:27:32;10.02;;;6.55;;
21233;SDS011;10774;42.178;26.578;2023-02-21T01:30:16;11.95;;;6.50;;
21233;SDS011;10774;42.178;26.578;2023-02-21T01:36:16;11.50;;;6.20;;
21233;SDS011;10774;42.178;26.578;2023-02-21T01:39:00;9.48;;;5.75;;
21233;SDS011;10774;42.178;26.578;2023-02-21T01:41:44;9.13;;;5.25;;
21233;SDS011;10774;42.178;26.578;2023-02-21T01:47:18;9.50;;;5.40;;
21233;SDS011;10774;42.178;26.578;2023-02-21T01:50:06;9.30;;;5.35;;
21233;SDS011;10774;42.178;26.578;2023-02-21T01:53:08;7.70;;;5.47;;
21233;SDS011;10774;42.178;26.578;2023-02-21T01:56:08;8.10;;;4.88;;
21233;SDS011;10774;42.178;26.578;2023-02-21T01:58:53;9.98;;;5.75;;
21233;SDS011;10774;42.178;26.578;2023-02-21T02:04:52;8.25;;;5.47;;
21233;SDS011;10774;42.178;26.578;2023-02-21T02:07:37;8.45;;;5.07;;
21233;SDS011;10774;42.178;26.578;2023-02-21T02:10:21;6.97;;;4.65;;
21233;SDS011;10774;42.178;26.578;2023-02-21T02:30:31;9.25;;;4.88;;
21233;SDS011;10774;42.178;26.578;2023-02-21T02:41:52;9.43;;;5.53;;
21233;SDS011;10774;42.178;26.578;2023-02-21T02:47:06;6.95;;;4.63;;
21233;SDS011;10774;42.178;26.578;2023-02-21T02:49:35;8.32;;;4.57;;
21233;SDS011;10774;42.178;26.578;2023-02-21T02:52:06;7.82;;;4.40;;
21233;SDS011;10774;42.178;26.578;2023-02-21T02:54:33;6.85;;;3.60;;
21233;SDS011;10774;42.178;26.578;2023-02-21T02:56:59;5.93;;;3.80;;
21233;SDS011;10774;42.178;26.578;2023-02-21T02:59:27;9.05;;;5.03;;
21233;SDS011;10774;42.178;26.578;2023-02-21T03:02:17;5.97;;;3.88;;
21233;SDS011;10774;42.178;26.578;2023-02-21T03:13:09;5.60;;;3.33;;
21233;SDS011;10774;42.178;26.578;2023-02-21T03:15:54;7.72;;;3.78;;
21233;SDS011;10774;42.178;26.578;2023-02-21T03:21:12;7.28;;;3.38;;
21233;SDS011;10774;42.178;26.578;2023-02-21T03:23:50;7.65;;;3.92;;
21233;SDS011;10774;42.178;26.578;2023-02-21T03:26:18;8.52;;;3.38;;
21233;SDS011;10774;42.178;26.578;2023-02-21T03:28:44;7.60;;;3.65;;
21233;SDS011;10774;42.178;26.578;2023-02-21T03:31:11;6.78;;;3.28;;
21233;SDS011;10774;42.178;26.578;2023-02-21T03:33:38;8.50;;;3.25;;
21233;SDS011;10774;42.178;26.578;2023-02-21T03:36:05;6.97;;;3.10;;
21233;SDS011;10774;42.178;26.578;2023-02-21T03:38:33;4.43;;;3.20;;
21233;SDS011;10774;42.178;26.578;2023-02-21T03:40:58;7.97;;;4.85;;
21233;SDS011;10774;42.178;26.578;2023-02-21T03:43:24;7.72;;;5.13;;
21233;SDS011;10774;42.178;26.578;2023-02-21T03:45:49;8.45;;;4.50;;
21233;SDS011;10774;42.178;26.578;2023-02-21T03:48:14;5.80;;;3.47;;
21233;SDS011;10774;42.178;26.578;2023-02-21T03:50:40;4.53;;;3.03;;
21233;SDS011;10774;42.178;26.578;2023-02-21T03:53:05;7.03;;;3.75;;
21233;SDS011;10774;42.178;26.578;2023-02-21T03:55:32;4.85;;;2.90;;
21233;SDS011;10774;42.178;26.578;2023-02-21T03:57:57;7.50;;;2.60;;
21233;SDS011;10774;42.178;26.578;2023-02-21T04:00:23;4.65;;;2.67;;
21233;SDS011;10774;42.178;26.578;2023-02-21T04:02:48;7.28;;;3.15;;
21233;SDS011;10774;42.178;26.578;2023-02-21T04:05:14;4.97;;;2.45;;
21233;SDS011;10774;42.178;26.578;2023-02-21T04:07:39;3.97;;;2.60;;
21233;SDS011;10774;42.178;26.578;2023-02-21T04:10:05;6.20;;;3.60;;
21233;SDS011;10774;42.178;26.578;2023-02-21T04:12:30;5.93;;;3.67;;
21233;SDS011;10774;42.178;26.578;2023-02-21T04:14:56;6.47;;;3.72;;
21233;SDS011;10774;42.178;26.578;2023-02-21T04:17:22;11.70;;;5.35;;
21233;SDS011;10774;42.178;26.578;2023-02-21T04:19:48;7.18;;;4.00;;
21233;SDS011;10774;42.178;26.578;2023-02-21T04:22:14;6.78;;;3.90;;
21233;SDS011;10774;42.178;26.578;2023-02-21T04:24:39;19.23;;;8.88;;
21233;SDS011;10774;42.178;26.578;2023-02-21T04:27:05;8.80;;;4.63;;
21233;SDS011;10774;42.178;26.578;2023-02-21T04:29:30;6.72;;;4.10;;
21233;SDS011;10774;42.178;26.578;2023-02-21T04:31:56;7.38;;;3.72;;
21233;SDS011;10774;42.178;26.578;2023-02-21T04:34:21;6.18;;;3.83;;
21233;SDS011;10774;42.178;26.578;2023-02-21T04:36:47;6.97;;;3.85;;
21233;SDS011;10774;42.178;26.578;2023-02-21T04:39:12;14.52;;;7.60;;
21233;SDS011;10774;42.178;26.578;2023-02-21T04:41:38;12.88;;;7.95;;
21233;SDS011;10774;42.178;26.578;2023-02-21T04:44:04;14.15;;;8.73;;
21233;SDS011;10774;42.178;26.578;2023-02-21T04:46:30;20.60;;;9.63;;
21233;SDS011;10774;42.178;26.578;2023-02-21T04:48:56;14.98;;;9.02;;
21233;SDS011;10774;42.178;26.578;2023-02-21T04:51:22;14.63;;;8.85;;
21233;SDS011;10774;42.178;26.578;2023-02-21T04:53:49;11.50;;;6.15;;
21233;SDS011;10774;42.178;26.578;2023-02-21T04:56:19;5.03;;;3.08;;
21233;SDS011;10774;42.178;26.578;2023-02-21T04:59:03;4.10;;;2.70;;
21233;SDS011;10774;42.178;26.578;2023-02-21T05:01:29;8.80;;;3.50;;
21233;SDS011;10774;42.178;26.578;2023-02-21T05:03:55;6.28;;;4.45;;
21233;SDS011;10774;42.178;26.578;2023-02-21T05:06:22;9.13;;;4.00;;
21233;SDS011;10774;42.178;26.578;2023-02-21T05:08:49;10.30;;;4.53;;
21233;SDS011;10774;42.178;26.578;2023-02-21T05:11:15;10.45;;;5.80;;
21233;SDS011;10774;42.178;26.578;2023-02-21T05:13:43;10.15;;;5.15;;
21233;SDS011;10774;42.178;26.578;2023-02-21T05:16:08;17.33;;;8.35;;
21233;SDS011;10774;42.178;26.578;2023-02-21T05:18:34;19.55;;;9.07;;
21233;SDS011;10774;42.178;26.578;2023-02-21T05:21:01;13.02;;;7.30;;
21233;SDS011;10774;42.178;26.578;2023-02-21T05:23:27;13.80;;;8.55;;
21233;SDS011;10774;42.178;26.578;2023-02-21T05:26:00;12.77;;;7.07;;
21233;SDS011;10774;42.178;26.578;2023-02-21T05:28:26;11.18;;;6.32;;
21233;SDS011;10774;42.178;26.578;2023-02-21T05:30:52;10.60;;;5.57;;
21233;SDS011;10774;42.178;26.578;2023-02-21T05:33:18;8.27;;;5.40;;
21233;SDS011;10774;42.178;26.578;2023-02-21T05:35:43;5.47;;;2.92;;
21233;SDS011;10774;42.178;26.578;2023-02-21T05:38:11;6.13;;;3.50;;
21233;SDS011;10774;42.178;26.578;2023-02-21T05:40:36;9.88;;;5.90;;
21233;SDS011;10774;42.178;26.578;2023-02-21T05:43:02;7.43;;;4.95;;
21233;SDS011;10774;42.178;26.578;2023-02-21T05:45:27;9.80;;;5.15;;
21233;SDS011;10774;42.178;26.578;2023-02-21T05:47:53;11.07;;;7.10;;
21233;SDS011;10774;42.178;26.578;2023-02-21T05:50:22;16.98;;;7.55;;
21233;SDS011;10774;42.178;26.578;2023-02-21T05:52:47;11.10;;;6.97;;
21233;SDS011;10774;42.178;26.578;2023-02-21T05:55:13;10.00;;;6.50;;
21233;SDS011;10774;42.178;26.578;2023-02-21T05:57:38;18.30;;;8.88;;
21233;SDS011;10774;42.178;26.578;2023-02-21T06:00:04;13.45;;;7.53;;
21233;SDS011;10774;42.178;26.578;2023-02-21T06:02:30;11.43;;;6.50;;
21233;SDS011;10774;42.178;26.578;2023-02-21T06:04:55;12.98;;;7.38;;
21233;SDS011;10774;42.178;26.578;2023-02-21T06:07:21;10.98;;;6.10;;
21233;SDS011;10774;42.178;26.578;2023-02-21T06:09:46;10.75;;;5.55;;
21233;SDS011;10774;42.178;26.578;2023-02-21T06:12:12;9.38;;;5.13;;
21233;SDS011;10774;42.178;26.578;2023-02-21T06:14:37;8.00;;;4.43;;
21233;SDS011;10774;42.178;26.578;2023-02-21T06:17:02;11.70;;;7.30;;
21233;SDS011;10774;42.178;26.578;2023-02-21T06:19:28;11.43;;;6.82;;
21233;SDS011;10774;42.178;26.578;2023-02-21T06:21:53;10.77;;;6.22;;
21233;SDS011;10774;42.178;26.578;2023-02-21T06:24:19;10.48;;;5.60;;
21233;SDS011;10774;42.178;26.578;2023-02-21T06:26:44;8.15;;;4.68;;
21233;SDS011;10774;42.178;26.578;2023-02-21T06:29:10;6.82;;;3.75;;
21233;SDS011;10774;42.178;26.578;2023-02-21T06:31:36;6.40;;;4.20;;
21233;SDS011;10774;42.178;26.578;2023-02-21T06:34:01;4.50;;;2.97;;
21233;SDS011;10774;42.178;26.578;2023-02-21T06:36:28;8.25;;;4.60;;
21233;SDS011;10774;42.178;26.578;2023-02-21T06:38:54;10.23;;;3.90;;
21233;SDS011;10774;42.178;26.578;2023-02-21T06:41:23;6.95;;;4.07;;
21233;SDS011;10774;42.178;26.578;2023-02-21T06:43:52;5.95;;;2.70;;
21233;SDS011;10774;42.178;26.578;2023-02-21T06:46:19;4.45;;;2.72;;
21233;SDS011;10774;42.178;26.578;2023-02-21T06:48:46;9.63;;;3.13;;
21233;SDS011;10774;42.178;26.578;2023-02-21T06:51:11;4.43;;;2.92;;
21233;SDS011;10774;42.178;26.578;2023-02-21T06:53:38;5.82;;;2.78;;
21233;SDS011;10774;42.178;26.578;2023-02-21T06:56:05;7.78;;;3.63;;
21233;SDS011;10774;42.178;26.578;2023-02-21T06:58:30;5.93;;;3.47;;
21233;SDS011;10774;42.178;26.578;2023-02-21T07:00:56;5.65;;;2.90;;
21233;SDS011;10774;42.178;26.578;2023-02-21T07:03:21;4.47;;;3.10;;
21233;SDS011;10774;42.178;26.578;2023-02-21T07:05:46;5.68;;;3.00;;
21233;SDS011;10774;42.178;26.578;2023-02-21T07:08:12;8.18;;;2.70;;
21233;SDS011;10774;42.178;26.578;2023-02-21T07:10:37;6.95;;;2.72;;
21233;SDS011;10774;42.178;26.578;2023-02-21T07:13:03;13.95;;;3.85;;
21233;SDS011;10774;42.178;26.578;2023-02-21T07:15:28;8.68;;;4.53;;
21233;SDS011;10774;42.178;26.578;2023-02-21T07:17:54;4.75;;;2.72;;
21233;SDS011;10774;42.178;26.578;2023-02-21T07:20:19;4.63;;;2.63;;
21233;SDS011;10774;42.178;26.578;2023-02-21T07:22:44;4.47;;;2.45;;
21233;SDS011;10774;42.178;26.578;2023-02-21T07:25:17;5.10;;;2.70;;
21233;SDS011;10774;42.178;26.578;2023-02-21T07:27:45;7.75;;;3.70;;
21233;SDS011;10774;42.178;26.578;2023-02-21T07:30:11;4.50;;;2.90;;
21233;SDS011;10774;42.178;26.578;2023-02-21T07:32:36;6.28;;;2.50;;
21233;SDS011;10774;42.178;26.578;2023-02-21T07:35:02;4.05;;;2.30;;
21233;SDS011;10774;42.178;26.578;2023-02-21T07:37:28;4.75;;;2.60;;
21233;SDS011;10774;42.178;26.578;2023-02-21T07:39:54;5.35;;;3.00;;
21233;SDS011;10774;42.178;26.578;2023-02-21T07:42:19;5.45;;;3.00;;
21233;SDS011;10774;42.178;26.578;2023-02-21T07:44:45;4.90;;;3.15;;
21233;SDS011;10774;42.178;26.578;2023-02-21T07:47:11;5.03;;;2.85;;
21233;SDS011;10774;42.178;26.578;2023-02-21T07:49:37;6.45;;;3.42;;
21233;SDS011;10774;42.178;26.578;2023-02-21T07:52:04;5.57;;;3.50;;
21233;SDS011;10774;42.178;26.578;2023-02-21T07:54:29;3.00;;;2.25;;
21233;SDS011;10774;42.178;26.578;2023-02-21T07:56:55;8.30;;;4.32;;
21233;SDS011;10774;42.178;26.578;2023-02-21T07:59:20;4.22;;;2.60;;
21233;SDS011;10774;42.178;26.578;2023-02-21T08:01:45;4.85;;;2.90;;
21233;SDS011;10774;42.178;26.578;2023-02-21T08:04:11;4.63;;;2.50;;
21233;SDS011;10774;42.178;26.578;2023-02-21T08:06:37;5.75;;;3.25;;
21233;SDS011;10774;42.178;26.578;2023-02-21T08:09:03;5.57;;;3.55;;
21233;SDS011;10774;42.178;26.578;2023-02-21T08:11:29;4.85;;;3.50;;
21233;SDS011;10774;42.178;26.578;2023-02-21T08:13:54;5.13;;;2.80;;
21233;SDS011;10774;42.178;26.578;2023-02-21T08:16:20;7.40;;;3.00;;
21233;SDS011;10774;42.178;26.578;2023-02-21T08:18:46;7.40;;;2.80;;
21233;SDS011;10774;42.178;26.578;2023-02-21T08:21:14;4.53;;;2.60;;
21233;SDS011;10774;42.178;26.578;2023-02-21T08:23:40;4.75;;;2.70;;
21233;SDS011;10774;42.178;26.578;2023-02-21T08:26:06;7.00;;;3.20;;
21233;SDS011;10774;42.178;26.578;2023-02-21T08:28:31;4.60;;;2.75;;
21233;SDS011;10774;42.178;26.578;2023-02-21T08:30:57;3.97;;;2.40;;
21233;SDS011;10774;42.178;26.578;2023-02-21T08:33:22;4.95;;;2.90;;
21233;SDS011;10774;42.178;26.578;2023-02-21T08:35:48;7.22;;;3.75;;
21233;SDS011;10774;42.178;26.578;2023-02-21T08:38:13;6.60;;;3.08;;
21233;SDS011;10774;42.178;26.578;2023-02-21T08:40:39;10.10;;;4.53;;
21233;SDS011;10774;42.178;26.578;2023-02-21T08:43:04;7.90;;;3.58;;
21233;SDS011;10774;42.178;26.578;2023-02-21T08:45:30;5.97;;;3.70;;
21233;SDS011;10774;42.178;26.578;2023-02-21T08:47:57;6.55;;;2.80;;
21233;SDS011;10774;42.178;26.578;2023-02-21T08:50:23;4.72;;;2.10;;
21233;SDS011;10774;42.178;26.578;2023-02-21T08:52:50;3.13;;;1.92;;
21233;SDS011;10774;42.178;26.578;2023-02-21T08:55:16;3.85;;;2.10;;
21233;SDS011;10774;42.178;26.578;2023-02-21T08:57:43;5.57;;;2.08;;
21233;SDS011;10774;42.178;26.578;2023-02-21T09:00:10;3.35;;;2.10;;
21233;SDS011;10774;42.178;26.578;2023-02-21T09:02:37;5.20;;;2.50;;
21233;SDS011;10774;42.178;26.578;2023-02-21T09:05:07;9.00;;;6.03;;
21233;SDS011;10774;42.178;26.578;2023-02-21T09:07:37;9.07;;;3.28;;
21233;SDS011;10774;42.178;26.578;2023-02-21T09:10:03;6.03;;;3.50;;
21233;SDS011;10774;42.178;26.578;2023-02-21T09:12:29;6.57;;;3.10;;
21233;SDS011;10774;42.178;26.578;2023-02-21T09:14:55;5.38;;;2.53;;
21233;SDS011;10774;42.178;26.578;2023-02-21T09:17:20;5.55;;;2.22;;
21233;SDS011;10774;42.178;26.578;2023-02-21T09:19:45;4.10;;;2.83;;
21233;SDS011;10774;42.178;26.578;2023-02-21T09:22:11;3.75;;;2.13;;
21233;SDS011;10774;42.178;26.578;2023-02-21T09:24:37;12.00;;;2.42;;
21233;SDS011;10774;42.178;26.578;2023-02-21T09:27:03;7.93;;;2.00;;
21233;SDS011;10774;42.178;26.578;2023-02-21T09:29:32;7.28;;;2.55;;
21233;SDS011;10774;42.178;26.578;2023-02-21T09:31:59;3.78;;;2.05;;
21233;SDS011;10774;42.178;26.578;2023-02-21T09:34:25;4.78;;;1.92;;
21233;SDS011;10774;42.178;26.578;2023-02-21T09:36:51;6.28;;;1.85;;
21233;SDS011;10774;42.178;26.578;2023-02-21T09:39:19;3.20;;;2.50;;
21233;SDS011;10774;42.178;26.578;2023-02-21T09:41:45;11.40;;;6.70;;
21233;SDS011;10774;42.178;26.578;2023-02-21T09:44:16;4.07;;;1.50;;
21233;SDS011;10774;42.178;26.578;2023-02-21T09:49:26;3.10;;;2.33;;
21233;SDS011;10774;42.178;26.578;2023-02-21T09:56:52;4.55;;;1.90;;
21233;SDS011;10774;42.178;26.578;2023-02-21T09:59:21;6.90;;;1.75;;
21233;SDS011;10774;42.178;26.578;2023-02-21T10:01:50;5.13;;;2.13;;
21233;SDS011;10774;42.178;26.578;2023-02-21T10:07:31;3.33;;;2.00;;
21233;SDS011;10774;42.178;26.578;2023-02-21T10:10:06;2.80;;;2.00;;
21233;SDS011;10774;42.178;26.578;2023-02-21T10:12:50;6.50;;;2.10;;
21233;SDS011;10774;42.178;26.578;2023-02-21T10:26:15;3.25;;;1.88;;
21233;SDS011;10774;42.178;26.578;2023-02-21T10:28:46;2.33;;;1.60;;
21233;SDS011;10774;42.178;26.578;2023-02-21T10:31:22;7.53;;;1.85;;
21233;SDS011;10774;42.178;26.578;2023-02-21T10:33:48;2.97;;;1.83;;
21233;SDS011;10774;42.178;26.578;2023-02-21T10:36:18;4.68;;;1.80;;
21233;SDS011;10774;42.178;26.578;2023-02-21T10:39:04;7.75;;;2.65;;
21233;SDS011;10774;42.178;26.578;2023-02-21T10:41:33;7.65;;;1.80;;
21233;SDS011;10774;42.178;26.578;2023-02-21T10:44:23;7.00;;;2.50;;
21233;SDS011;10774;42.178;26.578;2023-02-21T10:49:31;4.10;;;1.77;;
21233;SDS011;10774;42.178;26.578;2023-02-21T10:52:05;3.22;;;2.40;;
21233;SDS011;10774;42.178;26.578;2023-02-21T10:54:34;6.72;;;1.90;;
21233;SDS011;10774;42.178;26.578;2023-02-21T10:57:01;5.25;;;2.40;;
21233;SDS011;10774;42.178;26.578;2023-02-21T10:59:29;5.00;;;2.28;;
21233;SDS011;10774;42.178;26.578;2023-02-21T11:01:57;6.13;;;2.00;;
21233;SDS011;10774;42.178;26.578;2023-02-21T11:04:27;4.28;;;1.90;;
21233;SDS011;10774;42.178;26.578;2023-02-21T11:07:02;7.32;;;2.80;;
21233;SDS011;10774;42.178;26.578;2023-02-21T11:09:33;4.03;;;1.60;;
21233;SDS011;10774;42.178;26.578;2023-02-21T11:15:01;3.92;;;1.95;;
21233;SDS011;10774;42.178;26.578;2023-02-21T11:17:30;4.72;;;1.65;;
21233;SDS011;10774;42.178;26.578;2023-02-21T11:22:46;7.47;;;2.95;;
21233;SDS011;10774;42.178;26.578;2023-02-21T11:25:22;7.93;;;3.75;;
21233;SDS011;10774;42.178;26.578;2023-02-21T11:30:35;4.50;;;2.05;;
21233;SDS011;10774;42.178;26.578;2023-02-21T11:33:04;4.13;;;2.40;;
21233;SDS011;10774;42.178;26.578;2023-02-21T11:35:36;3.05;;;1.58;;
21233;SDS011;10774;42.178;26.578;2023-02-21T11:38:10;3.67;;;1.55;;
21233;SDS011;10774;42.178;26.578;2023-02-21T11:40:55;4.43;;;1.95;;
21233;SDS011;10774;42.178;26.578;2023-02-21T11:43:23;3.03;;;1.40;;
21233;SDS011;10774;42.178;26.578;2023-02-21T11:48:24;5.90;;;2.13;;
21233;SDS011;10774;42.178;26.578;2023-02-21T11:50:55;6.88;;;1.23;;
21233;SDS011;10774;42.178;26.578;2023-02-21T11:53:23;2.60;;;1.63;;
21233;SDS011;10774;42.178;26.578;2023-02-21T11:56:16;1.70;;;0.80;;
21233;SDS011;10774;42.178;26.578;2023-02-21T12:07:31;3.47;;;1.27;;
21233;SDS011;10774;42.178;26.578;2023-02-21T12:38:02;3.00;;;0.88;;
21233;SDS011;10774;42.178;26.578;2023-02-21T13:05:37;3.60;;;1.95;;
21233;SDS011;10774;42.178;26.578;2023-02-21T13:08:13;4.80;;;2.08;;
21233;SDS011;10774;42.178;26.578;2023-02-21T13:13:24;2.08;;;0.90;;
21233;SDS011;10774;42.178;26.578;2023-02-21T13:15:53;2.70;;;1.35;;
21233;SDS011;10774;42.178;26.578;2023-02-21T13:18:30;3.28;;;1.52;;
21233;SDS011;10774;42.178;26.578;2023-02-21T13:23:49;7.97;;;6.85;;
21233;SDS011;10774;42.178;26.578;2023-02-21T13:29:43;5.82;;;1.33;;
21233;SDS011;10774;42.178;26.578;2023-02-21T13:32:12;2.60;;;0.80;;
21233;SDS011;10774;42.178;26.578;2023-02-21T13:35:02;2.38;;;0.85;;
21233;SDS011;10774;42.178;26.578;2023-02-21T13:37:31;2.47;;;1.77;;
21233;SDS011;10774;42.178;26.578;2023-02-21T13:40:03;2.00;;;0.93;;
21233;SDS011;10774;42.178;26.578;2023-02-21T13:42:36;3.13;;;0.95;;
21233;SDS011;10774;42.178;26.578;2023-02-21T13:45:16;4.40;;;1.20;;
21233;SDS011;10774;42.178;26.578;2023-02-21T13:48:28;3.67;;;1.50;;
21233;SDS011;10774;42.178;26.578;2023-02-21T13:50:48;7.07;;;2.78;;
21233;SDS011;10774;42.178;26.578;2023-02-21T13:53:29;4.45;;;2.28;;
21233;SDS011;10774;42.178;26.578;2023-02-21T13:58:29;2.55;;;1.70;;
21233;SDS011;10774;42.178;26.578;2023-02-21T14:00:55;2.83;;;1.52;;
21233;SDS011;10774;42.178;26.578;2023-02-21T14:03:36;2.40;;;1.50;;
21233;SDS011;10774;42.178;26.578;2023-02-21T14:08:43;7.70;;;3.35;;
21233;SDS011;10774;42.178;26.578;2023-02-21T14:11:19;4.38;;;1.80;;
21233;SDS011;10774;42.178;26.578;2023-02-21T14:14:01;6.68;;;3.50;;
21233;SDS011;10774;42.178;26.578;2023-02-21T14:16:45;1.90;;;1.00;;
21233;SDS011;10774;42.178;26.578;2023-02-21T14:19:25;2.08;;;1.27;;
21233;SDS011;10774;42.178;26.578;2023-02-21T14:22:22;1.70;;;0.80;;
21233;SDS011;10774;42.178;26.578;2023-02-21T14:24:50;2.25;;;1.00;;
21233;SDS011;10774;42.178;26.578;2023-02-21T14:32:31;4.55;;;1.40;;
21233;SDS011;10774;42.178;26.578;2023-02-21T14:34:58;2.13;;;0.80;;
21233;SDS011;10774;42.178;26.578;2023-02-21T14:37:35;4.32;;;1.38;;
21233;SDS011;10774;42.178;26.578;2023-02-21T15:02:24;2.55;;;1.23;;
21233;SDS011;10774;42.178;26.578;2023-02-21T15:05:25;6.18;;;2.85;;
21233;SDS011;10774;42.178;26.578;2023-02-21T15:08:04;3.25;;;2.35;;
21233;SDS011;10774;42.178;26.578;2023-02-21T15:10:41;9.43;;;3.75;;
21233;SDS011;10774;42.178;26.578;2023-02-21T15:13:22;16.40;;;6.07;;
21233;SDS011;10774;42.178;26.578;2023-02-21T15:15:56;12.60;;;4.75;;
21233;SDS011;10774;42.178;26.578;2023-02-21T15:18:31;7.32;;;3.40;;
21233;SDS011;10774;42.178;26.578;2023-02-21T15:23:35;3.65;;;1.95;;
21233;SDS011;10774;42.178;26.578;2023-02-21T15:26:18;6.32;;;2.58;;
21233;SDS011;10774;42.178;26.578;2023-02-21T15:28:46;11.32;;;9.85;;
21233;SDS011;10774;42.178;26.578;2023-02-21T15:31:47;27.95;;;21.77;;
21233;SDS011;10774;42.178;26.578;2023-02-21T15:36:43;25.45;;;16.77;;
21233;SDS011;10774;42.178;26.578;2023-02-21T15:39:12;13.52;;;10.55;;
21233;SDS011;10774;42.178;26.578;2023-02-21T15:42:01;13.27;;;8.65;;
21233;SDS011;10774;42.178;26.578;2023-02-21T15:44:30;13.30;;;9.65;;
21233;SDS011;10774;42.178;26.578;2023-02-21T15:47:02;15.45;;;11.35;;
21233;SDS011;10774;42.178;26.578;2023-02-21T15:49:37;9.45;;;6.30;;
21233;SDS011;10774;42.178;26.578;2023-02-21T15:52:24;8.60;;;5.35;;
21233;SDS011;10774;42.178;26.578;2023-02-21T16:03:41;39.05;;;20.52;;
21233;SDS011;10774;42.178;26.578;2023-02-21T16:09:37;11.80;;;6.63;;
21233;SDS011;10774;42.178;26.578;2023-02-21T16:12:00;9.23;;;5.03;;
21233;SDS011;10774;42.178;26.578;2023-02-21T16:14:43;9.13;;;6.43;;
21233;SDS011;10774;42.178;26.578;2023-02-21T16:19:37;17.92;;;12.88;;
21233;SDS011;10774;42.178;26.578;2023-02-21T16:27:35;10.82;;;7.78;;
21233;SDS011;10774;42.178;26.578;2023-02-21T16:30:03;10.98;;;6.57;;
21233;SDS011;10774;42.178;26.578;2023-02-21T16:32:29;11.32;;;6.25;;
21233;SDS011;10774;42.178;26.578;2023-02-21T16:34:56;12.20;;;6.40;;
21233;SDS011;10774;42.178;26.578;2023-02-21T16:37:22;10.90;;;6.78;;
21233;SDS011;10774;42.178;26.578;2023-02-21T16:39:48;13.15;;;7.50;;
21233;SDS011;10774;42.178;26.578;2023-02-21T16:42:14;11.27;;;6.75;;
21233;SDS011;10774;42.178;26.578;2023-02-21T16:44:41;10.88;;;6.30;;
21233;SDS011;10774;42.178;26.578;2023-02-21T16:47:10;13.07;;;7.60;;
21233;SDS011;10774;42.178;26.578;2023-02-21T16:49:39;39.45;;;22.90;;
21233;SDS011;10774;42.178;26.578;2023-02-21T16:52:04;36.67;;;20.33;;
21233;SDS011;10774;42.178;26.578;2023-02-21T16:54:30;30.27;;;17.20;;
21233;SDS011;10774;42.178;26.578;2023-02-21T16:56:55;16.48;;;9.43;;
21233;SDS011;10774;42.178;26.578;2023-02-21T16:59:21;18.83;;;12.80;;
21233;SDS011;10774;42.178;26.578;2023-02-21T17:01:48;29.48;;;21.25;;
21233;SDS011;10774;42.178;26.578;2023-02-21T17:04:20;16.25;;;10.75;;
21233;SDS011;10774;42.178;26.578;2023-02-21T17:06:52;19.63;;;12.38;;
21233;SDS011;10774;42.178;26.578;2023-02-21T17:09:21;21.92;;;15.43;;
21233;SDS011;10774;42.178;26.578;2023-02-21T17:11:49;20.58;;;12.00;;
21233;SDS011;10774;42.178;26.578;2023-02-21T17:14:15;29.00;;;19.15;;
21233;SDS011;10774;42.178;26.578;2023-02-21T17:16:41;34.90;;;23.92;;
21233;SDS011;10774;42.178;26.578;2023-02-21T17:19:16;38.25;;;24.17;;
21233;SDS011;10774;42.178;26.578;2023-02-21T17:21:45;81.18;;;42.70;;
21233;SDS011;10774;42.178;26.578;2023-02-21T17:24:11;170.23;;;75.50;;
21233;SDS011;10774;42.178;26.578;2023-02-21T17:26:38;100.97;;;48.88;;
21233;SDS011;10774;42.178;26.578;2023-02-21T17:29:04;62.83;;;39.80;;
21233;SDS011;10774;42.178;26.578;2023-02-21T17:31:30;54.30;;;35.13;;
21233;SDS011;10774;42.178;26.578;2023-02-21T17:33:56;22.42;;;13.88;;
21233;SDS011;10774;42.178;26.578;2023-02-21T17:36:22;15.60;;;11.27;;
21233;SDS011;10774;42.178;26.578;2023-02-21T17:38:49;14.48;;;10.60;;
21233;SDS011;10774;42.178;26.578;2023-02-21T17:41:15;17.25;;;12.70;;
21233;SDS011;10774;42.178;26.578;2023-02-21T17:43:41;19.42;;;12.98;;
21233;SDS011;10774;42.178;26.578;2023-02-21T17:46:09;15.20;;;10.68;;
21233;SDS011;10774;42.178;26.578;2023-02-21T17:48:37;17.17;;;11.50;;
21233;SDS011;10774;42.178;26.578;2023-02-21T17:51:04;14.70;;;9.30;;
21233;SDS011;10774;42.178;26.578;2023-02-21T17:53:29;29.45;;;14.68;;
21233;SDS011;10774;42.178;26.578;2023-02-21T17:55:55;26.02;;;14.35;;
21233;SDS011;10774;42.178;26.578;2023-02-21T17:58:23;18.58;;;12.80;;
21233;SDS011;10774;42.178;26.578;2023-02-21T18:00:54;14.95;;;10.65;;
21233;SDS011;10774;42.178;26.578;2023-02-21T18:03:20;12.50;;;7.78;;
21233;SDS011;10774;42.178;26.578;2023-02-21T18:05:47;13.80;;;7.97;;
21233;SDS011;10774;42.178;26.578;2023-02-21T18:08:12;27.75;;;15.65;;
21233;SDS011;10774;42.178;26.578;2023-02-21T18:10:38;23.35;;;13.77;;
21233;SDS011;10774;42.178;26.578;2023-02-21T18:13:08;14.77;;;8.50;;
21233;SDS011;10774;42.178;26.578;2023-02-21T18:15:34;17.95;;;8.52;;
21233;SDS011;10774;42.178;26.578;2023-02-21T18:18:00;15.75;;;9.00;;
21233;SDS011;10774;42.178;26.578;2023-02-21T18:20:29;16.35;;;10.35;;
21233;SDS011;10774;42.178;26.578;2023-02-21T18:22:55;26.77;;;17.25;;
21233;SDS011;10774;42.178;26.578;2023-02-21T18:25:21;24.17;;;16.17;;